PWSweather.com
Personal Weather Stations
Station Observations
KMDSOLOM1
solomons, Solomons, MD 20688

solomonsSolomons, MD 20688

Lat: 38.32, Lon: -76.45

Elevation: 5

Station Type:

http://www.act-us.info/weather

High Low Average
Temperature 71.9°F22.2°C 52.9°F11.6°C 62.2°F16.8°C
Dew Point 54.9°F12.7°C 35.7°F2.1°C 43.2°F6.2°C
Winds 27.0 mph 43.5 kmh Calm Calm 7.0 mph SW11.3 kmh SW
Wind Gusts 29.0 mph46.7 kmh -- 15.0 mph24.1 kmh
Humidity 82% 27% 52%
Pressure 29.87 in1011.5 mb 29.57 in1001.4 mb -
Precipitation 0.00 in0.0 mm - -
Hour Temp Dew Point Humidity Winds Wind Gusts Pressure Precip Precip Rate Daily Precip Total
12:00 AM 57.4°F14.1°C 46.6°F8.1°C 67% 11.0 mph SW17.7 kmh SW 17.0 mph27.4 kmh 29.57 in1001.4 mb 0.00 in0.0 mm 0.00 in0.0 mm 0.00 in0.0 mm
12:05 AM 57.4°F14.1°C 46.9°F8.3°C 68% 9.0 mph SW14.5 kmh SW 17.0 mph27.4 kmh 29.57 in1001.4 mb 0.00 in0.0 mm 0.00 in0.0 mm 0.00 in0.0 mm
12:10 AM 57.4°F14.1°C 47.3°F8.5°C 69% 14.0 mph SSW22.5 kmh SSW 17.0 mph27.4 kmh 29.57 in1001.4 mb 0.00 in0.0 mm 0.00 in0.0 mm 0.00 in0.0 mm
12:15 AM 57.2°F14.0°C 46.8°F8.2°C 68% 17.0 mph SSW27.4 kmh SSW 19.0 mph30.6 kmh 29.58 in1001.7 mb 0.00 in0.0 mm 0.00 in0.0 mm 0.00 in0.0 mm
12:20 AM 56.9°F13.8°C 46.9°F8.3°C 69% 6.0 mph SSW9.7 kmh SSW 19.0 mph30.6 kmh 29.58 in1001.7 mb 0.00 in0.0 mm 0.00 in0.0 mm 0.00 in0.0 mm
12:25 AM 56.7°F13.7°C 47.0°F8.3°C 70% 6.0 mph SSW9.7 kmh SSW 19.0 mph30.6 kmh 29.59 in1002.0 mb 0.00 in0.0 mm 0.00 in0.0 mm 0.00 in0.0 mm
12:30 AM 56.6°F13.7°C 47.3°F8.5°C 71% 9.0 mph SSW14.5 kmh SSW 13.0 mph20.9 kmh 29.59 in1002.0 mb 0.00 in0.0 mm 0.00 in0.0 mm 0.00 in0.0 mm
12:35 AM 56.5°F13.6°C 46.9°F8.3°C 70% 4.0 mph SSW6.4 kmh SSW 16.0 mph25.7 kmh 29.58 in1001.7 mb 0.00 in0.0 mm 0.00 in0.0 mm 0.00 in0.0 mm
12:40 AM 56.5°F13.6°C 46.5°F8.1°C 69% 7.0 mph SSW11.3 kmh SSW 16.0 mph25.7 kmh 29.58 in1001.7 mb 0.00 in0.0 mm 0.00 in0.0 mm 0.00 in0.0 mm
12:45 AM 56.5°F13.6°C 47.2°F8.4°C 71% 5.0 mph SSW8.0 kmh SSW 11.0 mph17.7 kmh 29.58 in1001.7 mb 0.00 in0.0 mm 0.00 in0.0 mm 0.00 in0.0 mm
12:50 AM 56.4°F13.6°C 46.8°F8.2°C 70% 7.0 mph SSW11.3 kmh SSW 12.0 mph19.3 kmh 29.58 in1001.7 mb 0.00 in0.0 mm 0.00 in0.0 mm 0.00 in0.0 mm
12:55 AM 56.3°F13.5°C 46.7°F8.2°C 70% 5.0 mph SSW8.0 kmh SSW 13.0 mph20.9 kmh 29.58 in1001.7 mb 0.00 in0.0 mm 0.00 in0.0 mm 0.00 in0.0 mm
01:00 AM 56.3°F13.5°C 47.0°F8.3°C 71% 6.0 mph SSW9.7 kmh SSW 12.0 mph19.3 kmh 29.59 in1002.0 mb 0.00 in0.0 mm 0.00 in0.0 mm 0.00 in0.0 mm
01:05 AM 56.2°F13.4°C 46.9°F8.3°C 71% 4.0 mph S6.4 kmh S 12.0 mph19.3 kmh 29.58 in1001.7 mb 0.00 in0.0 mm 0.00 in0.0 mm 0.00 in0.0 mm
01:10 AM 56.2°F13.4°C 46.9°F8.3°C 71% 8.0 mph SSW12.9 kmh SSW 12.0 mph19.3 kmh 29.59 in1002.0 mb 0.00 in0.0 mm 0.00 in0.0 mm 0.00 in0.0 mm
01:15 AM 56.1°F13.4°C 46.8°F8.2°C 71% 4.0 mph SW6.4 kmh SW 14.0 mph22.5 kmh 29.59 in1002.0 mb 0.00 in0.0 mm 0.00 in0.0 mm 0.00 in0.0 mm
01:20 AM 56.1°F13.4°C 46.8°F8.2°C 71% 9.0 mph SSW14.5 kmh SSW 14.0 mph22.5 kmh 29.59 in1002.0 mb 0.00 in0.0 mm 0.00 in0.0 mm 0.00 in0.0 mm
01:25 AM 56.2°F13.4°C 46.9°F8.3°C 71% 7.0 mph SSW11.3 kmh SSW 14.0 mph22.5 kmh 29.59 in1002.0 mb 0.00 in0.0 mm 0.00 in0.0 mm 0.00 in0.0 mm
01:30 AM 56.3°F13.5°C 47.0°F8.3°C 71% 7.0 mph S11.3 kmh S 13.0 mph20.9 kmh 29.58 in1001.7 mb 0.00 in0.0 mm 0.00 in0.0 mm 0.00 in0.0 mm
01:35 AM 56.3°F13.5°C 47.0°F8.3°C 71% 16.0 mph S25.7 kmh S 19.0 mph30.6 kmh 29.59 in1002.0 mb 0.00 in0.0 mm 0.00 in0.0 mm 0.00 in0.0 mm
01:40 AM 56.4°F13.6°C 47.1°F8.4°C 71% 13.0 mph S20.9 kmh S 19.0 mph30.6 kmh 29.59 in1002.0 mb 0.00 in0.0 mm 0.00 in0.0 mm 0.00 in0.0 mm
01:45 AM 56.5°F13.6°C 47.2°F8.4°C 71% 5.0 mph SSW8.0 kmh SSW 15.0 mph24.1 kmh 29.59 in1002.0 mb 0.00 in0.0 mm 0.00 in0.0 mm 0.00 in0.0 mm
01:50 AM 56.6°F13.7°C 47.3°F8.5°C 71% 7.0 mph SSW11.3 kmh SSW 15.0 mph24.1 kmh 29.59 in1002.0 mb 0.00 in0.0 mm 0.00 in0.0 mm 0.00 in0.0 mm
01:55 AM 56.6°F13.7°C 47.7°F8.7°C 72% 11.0 mph SSW17.7 kmh SSW 15.0 mph24.1 kmh 29.59 in1002.0 mb 0.00 in0.0 mm 0.00 in0.0 mm 0.00 in0.0 mm
02:00 AM 56.6°F13.7°C 46.9°F8.3°C 70% 11.0 mph SSW17.7 kmh SSW 15.0 mph24.1 kmh 29.59 in1002.0 mb 0.00 in0.0 mm 0.00 in0.0 mm 0.00 in0.0 mm
02:05 AM 56.5°F13.6°C 46.5°F8.1°C 69% 11.0 mph S17.7 kmh S 19.0 mph30.6 kmh 29.59 in1002.0 mb 0.00 in0.0 mm 0.00 in0.0 mm 0.00 in0.0 mm
02:10 AM 56.5°F13.6°C 46.5°F8.1°C 69% 12.0 mph SSW19.3 kmh SSW 19.0 mph30.6 kmh 29.59 in1002.0 mb 0.00 in0.0 mm 0.00 in0.0 mm 0.00 in0.0 mm
02:15 AM 56.4°F13.6°C 46.8°F8.2°C 70% 7.0 mph SW11.3 kmh SW 19.0 mph30.6 kmh 29.60 in1002.4 mb 0.00 in0.0 mm 0.00 in0.0 mm 0.00 in0.0 mm
02:20 AM 56.5°F13.6°C 47.2°F8.4°C 71% 12.0 mph SW19.3 kmh SW 19.0 mph30.6 kmh 29.60 in1002.4 mb 0.00 in0.0 mm 0.00 in0.0 mm 0.00 in0.0 mm
02:25 AM 56.6°F13.7°C 47.3°F8.5°C 71% 10.0 mph SSW16.1 kmh SSW 19.0 mph30.6 kmh 29.60 in1002.4 mb 0.00 in0.0 mm 0.00 in0.0 mm 0.00 in0.0 mm
02:30 AM 56.7°F13.7°C 47.0°F8.3°C 70% 8.0 mph SSW12.9 kmh SSW 16.0 mph25.7 kmh 29.60 in1002.4 mb 0.00 in0.0 mm 0.00 in0.0 mm 0.00 in0.0 mm
02:35 AM 56.6°F13.7°C 46.6°F8.1°C 69% 14.0 mph SSW22.5 kmh SSW 24.0 mph38.6 kmh 29.60 in1002.4 mb 0.00 in0.0 mm 0.00 in0.0 mm 0.00 in0.0 mm
02:40 AM 56.5°F13.6°C 46.5°F8.1°C 69% 12.0 mph SSW19.3 kmh SSW 24.0 mph38.6 kmh 29.61 in1002.7 mb 0.00 in0.0 mm 0.00 in0.0 mm 0.00 in0.0 mm
02:45 AM 56.4°F13.6°C 46.8°F8.2°C 70% 14.0 mph SSW22.5 kmh SSW 21.0 mph33.8 kmh 29.61 in1002.7 mb 0.00 in0.0 mm 0.00 in0.0 mm 0.00 in0.0 mm
02:50 AM 56.3°F13.5°C 47.0°F8.3°C 71% 7.0 mph SW11.3 kmh SW 21.0 mph33.8 kmh 29.60 in1002.4 mb 0.00 in0.0 mm 0.00 in0.0 mm 0.00 in0.0 mm
02:55 AM 56.3°F13.5°C 47.0°F8.3°C 71% 6.0 mph SSW9.7 kmh SSW 21.0 mph33.8 kmh 29.61 in1002.7 mb 0.00 in0.0 mm 0.00 in0.0 mm 0.00 in0.0 mm
03:00 AM 56.2°F13.4°C 46.9°F8.3°C 71% 7.0 mph SW11.3 kmh SW 16.0 mph25.7 kmh 29.61 in1002.7 mb 0.00 in0.0 mm 0.00 in0.0 mm 0.00 in0.0 mm
03:05 AM 56.1°F13.4°C 46.8°F8.2°C 71% 9.0 mph SW14.5 kmh SW 17.0 mph27.4 kmh 29.61 in1002.7 mb 0.00 in0.0 mm 0.00 in0.0 mm 0.00 in0.0 mm
03:10 AM 55.9°F13.3°C 46.7°F8.2°C 71% 9.0 mph SSW14.5 kmh SSW 17.0 mph27.4 kmh 29.61 in1002.7 mb 0.00 in0.0 mm 0.00 in0.0 mm 0.00 in0.0 mm
03:15 AM 55.9°F13.3°C 46.7°F8.2°C 71% 7.0 mph SSW11.3 kmh SSW 17.0 mph27.4 kmh 29.62 in1003.0 mb 0.00 in0.0 mm 0.00 in0.0 mm 0.00 in0.0 mm
03:20 AM 55.9°F13.3°C 47.0°F8.3°C 72% 5.0 mph SW8.0 kmh SW 17.0 mph27.4 kmh 29.61 in1002.7 mb 0.00 in0.0 mm 0.00 in0.0 mm 0.00 in0.0 mm
03:25 AM 55.7°F13.2°C 46.8°F8.2°C 72% 7.0 mph SSW11.3 kmh SSW 17.0 mph27.4 kmh 29.62 in1003.0 mb 0.00 in0.0 mm 0.00 in0.0 mm 0.00 in0.0 mm
03:30 AM 55.6°F13.1°C 46.7°F8.2°C 72% 7.0 mph SSW11.3 kmh SSW 13.0 mph20.9 kmh 29.62 in1003.0 mb 0.00 in0.0 mm 0.00 in0.0 mm 0.00 in0.0 mm
03:35 AM 55.4°F13.0°C 46.5°F8.1°C 72% 9.0 mph SSW14.5 kmh SSW 13.0 mph20.9 kmh 29.62 in1003.0 mb 0.00 in0.0 mm 0.00 in0.0 mm 0.00 in0.0 mm
03:40 AM 55.3°F12.9°C 46.4°F8.0°C 72% 4.0 mph SSW6.4 kmh SSW 13.0 mph20.9 kmh 29.63 in1003.4 mb 0.00 in0.0 mm 0.00 in0.0 mm 0.00 in0.0 mm
03:45 AM 55.1°F12.8°C 46.6°F8.1°C 73% 3.0 mph SSW4.8 kmh SSW 7.0 mph11.3 kmh 29.63 in1003.4 mb 0.00 in0.0 mm 0.00 in0.0 mm 0.00 in0.0 mm
03:50 AM 54.8°F12.7°C 46.3°F7.9°C 73% 3.0 mph SSW4.8 kmh SSW 8.0 mph12.9 kmh 29.63 in1003.4 mb 0.00 in0.0 mm 0.00 in0.0 mm 0.00 in0.0 mm
03:55 AM 54.6°F12.6°C 46.5°F8.1°C 74% 2.0 mph SSW3.2 kmh SSW 9.0 mph14.5 kmh 29.63 in1003.4 mb 0.00 in0.0 mm 0.00 in0.0 mm 0.00 in0.0 mm
04:00 AM 54.4°F12.4°C 47.0°F8.3°C 76% 6.0 mph SSW9.7 kmh SSW 8.0 mph12.9 kmh 29.63 in1003.4 mb 0.00 in0.0 mm 0.00 in0.0 mm 0.00 in0.0 mm
04:05 AM 54.3°F12.4°C 46.9°F8.3°C 76% 4.0 mph SSW6.4 kmh SSW 8.0 mph12.9 kmh 29.63 in1003.4 mb 0.00 in0.0 mm 0.00 in0.0 mm 0.00 in0.0 mm
04:10 AM 54.1°F12.3°C 47.1°F8.4°C 77% 4.0 mph S6.4 kmh S 10.0 mph16.1 kmh 29.63 in1003.4 mb 0.00 in0.0 mm 0.00 in0.0 mm 0.00 in0.0 mm
04:15 AM 53.9°F12.2°C 47.2°F8.4°C 78% 4.0 mph SSW6.4 kmh SSW 8.0 mph12.9 kmh 29.63 in1003.4 mb 0.00 in0.0 mm 0.00 in0.0 mm 0.00 in0.0 mm
04:20 AM 53.8°F12.1°C 47.5°F8.6°C 79% 4.0 mph S6.4 kmh S 8.0 mph12.9 kmh 29.63 in1003.4 mb 0.00 in0.0 mm 0.00 in0.0 mm 0.00 in0.0 mm
04:25 AM 53.7°F12.1°C 47.4°F8.6°C 79% 4.0 mph S6.4 kmh S 8.0 mph12.9 kmh 29.63 in1003.4 mb 0.00 in0.0 mm 0.00 in0.0 mm 0.00 in0.0 mm
04:30 AM 53.6°F12.0°C 47.6°F8.7°C 80% 5.0 mph SSW8.0 kmh SSW 10.0 mph16.1 kmh 29.63 in1003.4 mb 0.00 in0.0 mm 0.00 in0.0 mm 0.00 in0.0 mm
04:35 AM 53.6°F12.0°C 47.6°F8.7°C 80% 6.0 mph SSW9.7 kmh SSW 10.0 mph16.1 kmh 29.63 in1003.4 mb 0.00 in0.0 mm 0.00 in0.0 mm 0.00 in0.0 mm
04:40 AM 53.6°F12.0°C 47.6°F8.7°C 80% 3.0 mph SSW4.8 kmh SSW 10.0 mph16.1 kmh 29.63 in1003.4 mb 0.00 in0.0 mm 0.00 in0.0 mm 0.00 in0.0 mm
04:45 AM 53.5°F11.9°C 47.8°F8.8°C 81% 4.0 mph SSW6.4 kmh SSW 10.0 mph16.1 kmh 29.64 in1003.7 mb 0.00 in0.0 mm 0.00 in0.0 mm 0.00 in0.0 mm
04:50 AM 53.5°F11.9°C 47.8°F8.8°C 81% 3.0 mph S4.8 kmh S 10.0 mph16.1 kmh 29.64 in1003.7 mb 0.00 in0.0 mm 0.00 in0.0 mm 0.00 in0.0 mm
04:55 AM 53.5°F11.9°C 48.2°F9.0°C 82% 5.0 mph S8.0 kmh S 10.0 mph16.1 kmh 29.64 in1003.7 mb 0.00 in0.0 mm 0.00 in0.0 mm 0.00 in0.0 mm
05:00 AM 53.2°F11.8°C 47.9°F8.8°C 82% Calm Calm 6.0 mph9.7 kmh 29.64 in1003.7 mb 0.00 in0.0 mm 0.00 in0.0 mm 0.00 in0.0 mm
05:05 AM 53.1°F11.7°C 47.8°F8.8°C 82% 4.0 mph S6.4 kmh S 9.0 mph14.5 kmh 29.65 in1004.1 mb 0.00 in0.0 mm 0.00 in0.0 mm 0.00 in0.0 mm
05:10 AM 52.9°F11.6°C 47.6°F8.7°C 82% 2.0 mph S3.2 kmh S 9.0 mph14.5 kmh 29.66 in1004.4 mb 0.00 in0.0 mm 0.00 in0.0 mm 0.00 in0.0 mm
05:15 AM 52.9°F11.6°C 47.6°F8.7°C 82% 8.0 mph SSW12.9 kmh SSW 14.0 mph22.5 kmh 29.65 in1004.1 mb 0.00 in0.0 mm 0.00 in0.0 mm 0.00 in0.0 mm
05:20 AM 53.1°F11.7°C 47.4°F8.6°C 81% 9.0 mph SSW14.5 kmh SSW 14.0 mph22.5 kmh 29.66 in1004.4 mb 0.00 in0.0 mm 0.00 in0.0 mm 0.00 in0.0 mm
05:25 AM 53.4°F11.9°C 46.7°F8.2°C 78% 8.0 mph SW12.9 kmh SW 17.0 mph27.4 kmh 29.66 in1004.4 mb 0.00 in0.0 mm 0.00 in0.0 mm 0.00 in0.0 mm
05:30 AM 53.7°F12.1°C 47.0°F8.3°C 78% 11.0 mph S17.7 kmh S 14.0 mph22.5 kmh 29.66 in1004.4 mb 0.00 in0.0 mm 0.00 in0.0 mm 0.00 in0.0 mm
05:35 AM 53.9°F12.2°C 47.2°F8.4°C 78% 10.0 mph S16.1 kmh S 14.0 mph22.5 kmh 29.67 in1004.7 mb 0.00 in0.0 mm 0.00 in0.0 mm 0.00 in0.0 mm
05:40 AM 53.9°F12.2°C 46.9°F8.3°C 77% 9.0 mph SSW14.5 kmh SSW 14.0 mph22.5 kmh 29.67 in1004.7 mb 0.00 in0.0 mm 0.00 in0.0 mm 0.00 in0.0 mm
05:45 AM 53.8°F12.1°C 46.4°F8.0°C 76% 9.0 mph SSW14.5 kmh SSW 14.0 mph22.5 kmh 29.68 in1005.1 mb 0.00 in0.0 mm 0.00 in0.0 mm 0.00 in0.0 mm
05:50 AM 53.9°F12.2°C 45.1°F7.3°C 72% 9.0 mph SW14.5 kmh SW 20.0 mph32.2 kmh 29.68 in1005.1 mb 0.00 in0.0 mm 0.00 in0.0 mm 0.00 in0.0 mm
05:55 AM 54.1°F12.3°C 44.9°F7.2°C 71% 14.0 mph SSW22.5 kmh SSW 20.0 mph32.2 kmh 29.68 in1005.1 mb 0.00 in0.0 mm 0.00 in0.0 mm 0.00 in0.0 mm
06:00 AM 54.3°F12.4°C 44.7°F7.1°C 70% 8.0 mph SSW12.9 kmh SSW 21.0 mph33.8 kmh 29.69 in1005.4 mb 0.00 in0.0 mm 0.00 in0.0 mm 0.00 in0.0 mm
06:05 AM 54.4°F12.4°C 45.2°F7.3°C 71% 8.0 mph SSW12.9 kmh SSW 21.0 mph33.8 kmh 29.70 in1005.8 mb 0.00 in0.0 mm 0.00 in0.0 mm 0.00 in0.0 mm
06:10 AM 54.3°F12.4°C 44.4°F6.9°C 69% 6.0 mph SSW9.7 kmh SSW 21.0 mph33.8 kmh 29.70 in1005.8 mb 0.00 in0.0 mm 0.00 in0.0 mm 0.00 in0.0 mm
06:15 AM 54.3°F12.4°C 44.7°F7.1°C 70% 8.0 mph SSW12.9 kmh SSW 10.0 mph16.1 kmh 29.71 in1006.1 mb 0.00 in0.0 mm 0.00 in0.0 mm 0.00 in0.0 mm
06:20 AM 54.3°F12.4°C 44.7°F7.1°C 70% 3.0 mph SSW4.8 kmh SSW 10.0 mph16.1 kmh 29.71 in1006.1 mb 0.00 in0.0 mm 0.00 in0.0 mm 0.00 in0.0 mm
06:25 AM 54.2°F12.3°C 44.3°F6.8°C 69% 8.0 mph SSW12.9 kmh SSW 11.0 mph17.7 kmh 29.72 in1006.4 mb 0.00 in0.0 mm 0.00 in0.0 mm 0.00 in0.0 mm
06:30 AM 54.4°F12.4°C 42.1°F5.6°C 63% 10.0 mph SSW16.1 kmh SSW 18.0 mph29.0 kmh 29.72 in1006.4 mb 0.00 in0.0 mm 0.00 in0.0 mm 0.00 in0.0 mm
06:35 AM 54.8°F12.7°C 40.8°F4.9°C 59% 8.0 mph SW12.9 kmh SW 24.0 mph38.6 kmh 29.71 in1006.1 mb 0.00 in0.0 mm 0.00 in0.0 mm 0.00 in0.0 mm
06:40 AM 55.2°F12.9°C 40.7°F4.8°C 58% 10.0 mph SSW16.1 kmh SSW 24.0 mph38.6 kmh 29.72 in1006.4 mb 0.00 in0.0 mm 0.00 in0.0 mm 0.00 in0.0 mm
06:45 AM 55.4°F13.0°C 40.0°F4.4°C 56% 12.0 mph SSW19.3 kmh SSW 17.0 mph27.4 kmh 29.72 in1006.4 mb 0.00 in0.0 mm 0.00 in0.0 mm 0.00 in0.0 mm
06:50 AM 55.6°F13.1°C 40.6°F4.8°C 57% 8.0 mph SW12.9 kmh SW 19.0 mph30.6 kmh 29.73 in1006.8 mb 0.00 in0.0 mm 0.00 in0.0 mm 0.00 in0.0 mm
06:55 AM 55.7°F13.2°C 39.8°F4.3°C 55% 13.0 mph SW20.9 kmh SW 19.0 mph30.6 kmh 29.73 in1006.8 mb 0.00 in0.0 mm 0.00 in0.0 mm 0.00 in0.0 mm
07:00 AM 55.7°F13.2°C 40.3°F4.6°C 56% 27.0 mph SSW43.5 kmh SSW 27.0 mph43.5 kmh 29.73 in1006.8 mb 0.00 in0.0 mm 0.00 in0.0 mm 0.00 in0.0 mm
07:05 AM 55.9°F13.3°C 40.0°F4.4°C 55% 7.0 mph SW11.3 kmh SW 27.0 mph43.5 kmh 29.73 in1006.8 mb 0.00 in0.0 mm 0.00 in0.0 mm 0.00 in0.0 mm
07:10 AM 56.1°F13.4°C 39.2°F4.0°C 53% 10.0 mph SW16.1 kmh SW 27.0 mph43.5 kmh 29.73 in1006.8 mb 0.00 in0.0 mm 0.00 in0.0 mm 0.00 in0.0 mm
07:15 AM 56.1°F13.4°C 39.7°F4.3°C 54% 11.0 mph SW17.7 kmh SW 16.0 mph25.7 kmh 29.73 in1006.8 mb 0.00 in0.0 mm 0.00 in0.0 mm 0.00 in0.0 mm
07:20 AM 56.0°F13.3°C 38.6°F3.7°C 52% 7.0 mph SW11.3 kmh SW 18.0 mph29.0 kmh 29.74 in1007.1 mb 0.00 in0.0 mm 0.00 in0.0 mm 0.00 in0.0 mm
07:25 AM 56.1°F13.4°C 38.7°F3.7°C 52% 12.0 mph S19.3 kmh S 18.0 mph29.0 kmh 29.74 in1007.1 mb 0.00 in0.0 mm 0.00 in0.0 mm 0.00 in0.0 mm
07:30 AM 56.3°F13.5°C 39.4°F4.1°C 53% 7.0 mph S11.3 kmh S 15.0 mph24.1 kmh 29.74 in1007.1 mb 0.00 in0.0 mm 0.00 in0.0 mm 0.00 in0.0 mm
07:35 AM 56.4°F13.6°C 38.0°F3.3°C 50% 4.0 mph SW6.4 kmh SW 20.0 mph32.2 kmh 29.73 in1006.8 mb 0.00 in0.0 mm 0.00 in0.0 mm 0.00 in0.0 mm
07:40 AM 56.4°F13.6°C 37.0°F2.8°C 48% 11.0 mph S17.7 kmh S 25.0 mph40.2 kmh 29.74 in1007.1 mb 0.00 in0.0 mm 0.00 in0.0 mm 0.00 in0.0 mm
07:45 AM 56.5°F13.6°C 37.6°F3.1°C 49% 10.0 mph S16.1 kmh S 22.0 mph35.4 kmh 29.73 in1006.8 mb 0.00 in0.0 mm 0.00 in0.0 mm 0.00 in0.0 mm
07:50 AM 56.8°F13.8°C 37.9°F3.3°C 49% 8.0 mph SSW12.9 kmh SSW 24.0 mph38.6 kmh 29.74 in1007.1 mb 0.00 in0.0 mm 0.00 in0.0 mm 0.00 in0.0 mm
07:55 AM 57.0°F13.9°C 38.1°F3.4°C 49% 10.0 mph WSW16.1 kmh WSW 24.0 mph38.6 kmh 29.74 in1007.1 mb 0.00 in0.0 mm 0.00 in0.0 mm 0.00 in0.0 mm
08:00 AM 57.1°F13.9°C 37.1°F2.8°C 47% 8.0 mph S12.9 kmh S 21.0 mph33.8 kmh 29.74 in1007.1 mb 0.00 in0.0 mm 0.00 in0.0 mm 0.00 in0.0 mm
08:05 AM 57.2°F14.0°C 37.7°F3.2°C 48% 7.0 mph SSW11.3 kmh SSW 21.0 mph33.8 kmh 29.74 in1007.1 mb 0.00 in0.0 mm 0.00 in0.0 mm 0.00 in0.0 mm
08:10 AM 57.4°F14.1°C 37.9°F3.3°C 48% 4.0 mph S6.4 kmh S 21.0 mph33.8 kmh 29.74 in1007.1 mb 0.00 in0.0 mm 0.00 in0.0 mm 0.00 in0.0 mm
08:15 AM 58.0°F14.4°C 40.0°F4.4°C 51% 5.0 mph SSW8.0 kmh SSW 11.0 mph17.7 kmh 29.74 in1007.1 mb 0.00 in0.0 mm 0.00 in0.0 mm 0.00 in0.0 mm
08:20 AM 57.9°F14.4°C 38.9°F3.8°C 49% 12.0 mph S19.3 kmh S 13.0 mph20.9 kmh 29.74 in1007.1 mb 0.00 in0.0 mm 0.00 in0.0 mm 0.00 in0.0 mm
08:25 AM 58.1°F14.5°C 39.6°F4.2°C 50% 12.0 mph S19.3 kmh S 20.0 mph32.2 kmh 29.74 in1007.1 mb 0.00 in0.0 mm 0.00 in0.0 mm 0.00 in0.0 mm
08:30 AM 58.0°F14.4°C 39.0°F3.9°C 49% 11.0 mph SSW17.7 kmh SSW 13.0 mph20.9 kmh 29.74 in1007.1 mb 0.00 in0.0 mm 0.00 in0.0 mm 0.00 in0.0 mm
08:35 AM 58.4°F14.7°C 39.9°F4.4°C 50% 8.0 mph S12.9 kmh S 16.0 mph25.7 kmh 29.73 in1006.8 mb 0.00 in0.0 mm 0.00 in0.0 mm 0.00 in0.0 mm
08:40 AM 58.4°F14.7°C 39.9°F4.4°C 50% 9.0 mph S14.5 kmh S 16.0 mph25.7 kmh 29.74 in1007.1 mb 0.00 in0.0 mm 0.00 in0.0 mm 0.00 in0.0 mm
08:45 AM 58.4°F14.7°C 39.3°F4.1°C 49% 8.0 mph S12.9 kmh S 21.0 mph33.8 kmh 29.73 in1006.8 mb 0.00 in0.0 mm 0.00 in0.0 mm 0.00 in0.0 mm
08:50 AM 58.4°F14.7°C 39.3°F4.1°C 49% 10.0 mph SSW16.1 kmh SSW 21.0 mph33.8 kmh 29.73 in1006.8 mb 0.00 in0.0 mm 0.00 in0.0 mm 0.00 in0.0 mm
08:55 AM 58.6°F14.8°C 40.0°F4.4°C 50% 6.0 mph SSW9.7 kmh SSW 21.0 mph33.8 kmh 29.73 in1006.8 mb 0.00 in0.0 mm 0.00 in0.0 mm 0.00 in0.0 mm
09:00 AM 58.8°F14.9°C 37.5°F3.1°C 45% 11.0 mph S17.7 kmh S 20.0 mph32.2 kmh 29.73 in1006.8 mb 0.00 in0.0 mm 0.00 in0.0 mm 0.00 in0.0 mm
09:05 AM 58.9°F14.9°C 38.7°F3.7°C 47% 14.0 mph SSW22.5 kmh SSW 22.0 mph35.4 kmh 29.73 in1006.8 mb 0.00 in0.0 mm 0.00 in0.0 mm 0.00 in0.0 mm
09:10 AM 59.3°F15.2°C 37.4°F3.0°C 44% 11.0 mph S17.7 kmh S 22.0 mph35.4 kmh 29.73 in1006.8 mb 0.00 in0.0 mm 0.00 in0.0 mm 0.00 in0.0 mm
09:15 AM 59.4°F15.2°C 35.7°F2.1°C 41% 9.0 mph SW14.5 kmh SW 21.0 mph33.8 kmh 29.73 in1006.8 mb 0.00 in0.0 mm 0.00 in0.0 mm 0.00 in0.0 mm
09:20 AM 59.3°F15.2°C 36.2°F2.3°C 42% 7.0 mph S11.3 kmh S 23.0 mph37.0 kmh 29.73 in1006.8 mb 0.00 in0.0 mm 0.00 in0.0 mm 0.00 in0.0 mm
09:25 AM 59.8°F15.4°C 39.6°F4.2°C 47% 7.0 mph SW11.3 kmh SW 23.0 mph37.0 kmh 29.73 in1006.8 mb 0.00 in0.0 mm 0.00 in0.0 mm 0.00 in0.0 mm
09:30 AM 60.2°F15.7°C 39.4°F4.1°C 46% 9.0 mph SSW14.5 kmh SSW 12.0 mph19.3 kmh 29.73 in1006.8 mb 0.00 in0.0 mm 0.00 in0.0 mm 0.00 in0.0 mm
09:35 AM 60.1°F15.6°C 39.3°F4.1°C 46% 4.0 mph S6.4 kmh S 17.0 mph27.4 kmh 29.73 in1006.8 mb 0.00 in0.0 mm 0.00 in0.0 mm 0.00 in0.0 mm
09:40 AM 60.4°F15.8°C 41.2°F5.1°C 49% 11.0 mph SSW17.7 kmh SSW 22.0 mph35.4 kmh 29.73 in1006.8 mb 0.00 in0.0 mm 0.00 in0.0 mm 0.00 in0.0 mm
09:45 AM 60.5°F15.8°C 36.7°F2.6°C 41% 12.0 mph SW19.3 kmh SW 22.0 mph35.4 kmh 29.73 in1006.8 mb 0.00 in0.0 mm 0.00 in0.0 mm 0.00 in0.0 mm
09:50 AM 60.6°F15.9°C 38.0°F3.3°C 43% 10.0 mph SW16.1 kmh SW 25.0 mph40.2 kmh 29.73 in1006.8 mb 0.00 in0.0 mm 0.00 in0.0 mm 0.00 in0.0 mm
09:55 AM 60.7°F15.9°C 38.1°F3.4°C 43% 11.0 mph SSW17.7 kmh SSW 25.0 mph40.2 kmh 29.72 in1006.4 mb 0.00 in0.0 mm 0.00 in0.0 mm 0.00 in0.0 mm
10:00 AM 60.7°F15.9°C 38.7°F3.7°C 44% 11.0 mph SW17.7 kmh SW 29.0 mph46.7 kmh 29.72 in1006.4 mb 0.00 in0.0 mm 0.00 in0.0 mm 0.00 in0.0 mm
10:05 AM 61.2°F16.2°C 40.8°F4.9°C 47% 11.0 mph SSW17.7 kmh SSW 29.0 mph46.7 kmh 29.72 in1006.4 mb 0.00 in0.0 mm 0.00 in0.0 mm 0.00 in0.0 mm
10:10 AM 61.0°F16.1°C 38.4°F3.6°C 43% 8.0 mph S12.9 kmh S 29.0 mph46.7 kmh 29.71 in1006.1 mb 0.00 in0.0 mm 0.00 in0.0 mm 0.00 in0.0 mm
10:15 AM 61.2°F16.2°C 39.7°F4.3°C 45% 2.0 mph SSW3.2 kmh SSW 17.0 mph27.4 kmh 29.71 in1006.1 mb 0.00 in0.0 mm 0.00 in0.0 mm 0.00 in0.0 mm
10:20 AM 61.3°F16.3°C 39.8°F4.3°C 45% 7.0 mph SSW11.3 kmh SSW 17.0 mph27.4 kmh 29.71 in1006.1 mb 0.00 in0.0 mm 0.00 in0.0 mm 0.00 in0.0 mm
10:25 AM 61.1°F16.2°C 37.2°F2.9°C 41% 4.0 mph S6.4 kmh S 18.0 mph29.0 kmh 29.72 in1006.4 mb 0.00 in0.0 mm 0.00 in0.0 mm 0.00 in0.0 mm
10:30 AM 61.5°F16.4°C 38.2°F3.4°C 42% 8.0 mph SSW12.9 kmh SSW 19.0 mph30.6 kmh 29.72 in1006.4 mb 0.00 in0.0 mm 0.00 in0.0 mm 0.00 in0.0 mm
10:35 AM 61.9°F16.6°C 39.2°F4.0°C 43% 3.0 mph S4.8 kmh S 22.0 mph35.4 kmh 29.72 in1006.4 mb 0.00 in0.0 mm 0.00 in0.0 mm 0.00 in0.0 mm
10:40 AM 62.1°F16.7°C 39.4°F4.1°C 43% 8.0 mph SSW12.9 kmh SSW 22.0 mph35.4 kmh 29.72 in1006.4 mb 0.00 in0.0 mm 0.00 in0.0 mm 0.00 in0.0 mm
10:45 AM 62.2°F16.8°C 39.5°F4.2°C 43% 8.0 mph SW12.9 kmh SW 20.0 mph32.2 kmh 29.72 in1006.4 mb 0.00 in0.0 mm 0.00 in0.0 mm 0.00 in0.0 mm
10:50 AM 62.3°F16.8°C 38.9°F3.8°C 42% 9.0 mph SW14.5 kmh SW 20.0 mph32.2 kmh 29.72 in1006.4 mb 0.00 in0.0 mm 0.00 in0.0 mm 0.00 in0.0 mm
10:55 AM 62.8°F17.1°C 40.6°F4.8°C 44% 10.0 mph S16.1 kmh S 21.0 mph33.8 kmh 29.72 in1006.4 mb 0.00 in0.0 mm 0.00 in0.0 mm 0.00 in0.0 mm
11:00 AM 62.7°F17.1°C 37.4°F3.0°C 39% 8.0 mph SW12.9 kmh SW 18.0 mph29.0 kmh 29.71 in1006.1 mb 0.00 in0.0 mm 0.00 in0.0 mm 0.00 in0.0 mm
11:05 AM 63.0°F17.2°C 39.0°F3.9°C 41% 11.0 mph SW17.7 kmh SW 19.0 mph30.6 kmh 29.71 in1006.1 mb 0.00 in0.0 mm 0.00 in0.0 mm 0.00 in0.0 mm
11:10 AM 62.8°F17.1°C 38.1°F3.4°C 40% 16.0 mph SW25.7 kmh SW 21.0 mph33.8 kmh 29.72 in1006.4 mb 0.00 in0.0 mm 0.00 in0.0 mm 0.00 in0.0 mm
11:15 AM 62.9°F17.2°C 38.2°F3.4°C 40% 8.0 mph S12.9 kmh S 25.0 mph40.2 kmh 29.71 in1006.1 mb 0.00 in0.0 mm 0.00 in0.0 mm 0.00 in0.0 mm
11:20 AM 63.6°F17.6°C 38.9°F3.8°C 40% 11.0 mph SW17.7 kmh SW 25.0 mph40.2 kmh 29.71 in1006.1 mb 0.00 in0.0 mm 0.00 in0.0 mm 0.00 in0.0 mm
11:25 AM 64.0°F17.8°C 39.2°F4.0°C 40% 12.0 mph S19.3 kmh S 25.0 mph40.2 kmh 29.71 in1006.1 mb 0.00 in0.0 mm 0.00 in0.0 mm 0.00 in0.0 mm
11:30 AM 64.1°F17.8°C 36.6°F2.6°C 36% 12.0 mph S19.3 kmh S 22.0 mph35.4 kmh 29.71 in1006.1 mb 0.00 in0.0 mm 0.00 in0.0 mm 0.00 in0.0 mm
11:35 AM 64.2°F17.9°C 40.0°F4.4°C 41% 8.0 mph SW12.9 kmh SW 22.0 mph35.4 kmh 29.71 in1006.1 mb 0.00 in0.0 mm 0.00 in0.0 mm 0.00 in0.0 mm
11:40 AM 64.1°F17.8°C 38.7°F3.7°C 39% 9.0 mph SSW14.5 kmh SSW 22.0 mph35.4 kmh 29.71 in1006.1 mb 0.00 in0.0 mm 0.00 in0.0 mm 0.00 in0.0 mm
11:45 AM 64.3°F17.9°C 38.2°F3.4°C 38% 18.0 mph SW29.0 kmh SW 22.0 mph35.4 kmh 29.70 in1005.8 mb 0.00 in0.0 mm 0.00 in0.0 mm 0.00 in0.0 mm
11:50 AM 64.4°F18.0°C 37.6°F3.1°C 37% 10.0 mph SW16.1 kmh SW 25.0 mph40.2 kmh 29.70 in1005.8 mb 0.00 in0.0 mm 0.00 in0.0 mm 0.00 in0.0 mm
11:55 AM 64.9°F18.3°C 38.0°F3.3°C 37% 9.0 mph SSE14.5 kmh SSE 25.0 mph40.2 kmh 29.70 in1005.8 mb 0.00 in0.0 mm 0.00 in0.0 mm 0.00 in0.0 mm
12:00 PM 65.3°F18.5°C 39.1°F3.9°C 38% 10.0 mph SSW16.1 kmh SSW 19.0 mph30.6 kmh 29.70 in1005.8 mb 0.00 in0.0 mm 0.00 in0.0 mm 0.00 in0.0 mm
12:05 PM 65.3°F18.5°C 39.1°F3.9°C 38% 10.0 mph SW16.1 kmh SW 24.0 mph38.6 kmh 29.69 in1005.4 mb 0.00 in0.0 mm 0.00 in0.0 mm 0.00 in0.0 mm
12:10 PM 65.8°F18.8°C 39.5°F4.2°C 38% 8.0 mph S12.9 kmh S 24.0 mph38.6 kmh 29.69 in1005.4 mb 0.00 in0.0 mm 0.00 in0.0 mm 0.00 in0.0 mm
12:15 PM 65.8°F18.8°C 38.1°F3.4°C 36% 19.0 mph S30.6 kmh S 24.0 mph38.6 kmh 29.69 in1005.4 mb 0.00 in0.0 mm 0.00 in0.0 mm 0.00 in0.0 mm
12:20 PM 65.6°F18.7°C 38.7°F3.7°C 37% 18.0 mph S29.0 kmh S 24.0 mph38.6 kmh 29.68 in1005.1 mb 0.00 in0.0 mm 0.00 in0.0 mm 0.00 in0.0 mm
12:25 PM 65.7°F18.7°C 37.3°F2.9°C 35% 11.0 mph S17.7 kmh S 28.0 mph45.1 kmh 29.69 in1005.4 mb 0.00 in0.0 mm 0.00 in0.0 mm 0.00 in0.0 mm
12:30 PM 65.9°F18.8°C 38.9°F3.8°C 37% 10.0 mph SSW16.1 kmh SSW 18.0 mph29.0 kmh 29.68 in1005.1 mb 0.00 in0.0 mm 0.00 in0.0 mm 0.00 in0.0 mm
12:35 PM 66.1°F18.9°C 39.8°F4.3°C 38% 12.0 mph S19.3 kmh S 24.0 mph38.6 kmh 29.68 in1005.1 mb 0.00 in0.0 mm 0.00 in0.0 mm 0.00 in0.0 mm
12:40 PM 66.5°F19.2°C 39.5°F4.2°C 37% 3.0 mph S4.8 kmh S 24.0 mph38.6 kmh 29.68 in1005.1 mb 0.00 in0.0 mm 0.00 in0.0 mm 0.00 in0.0 mm
12:45 PM 66.4°F19.1°C 40.1°F4.5°C 38% 13.0 mph S20.9 kmh S 18.0 mph29.0 kmh 29.68 in1005.1 mb 0.00 in0.0 mm 0.00 in0.0 mm 0.00 in0.0 mm
12:50 PM 66.5°F19.2°C 40.8°F4.9°C 39% 8.0 mph SSW12.9 kmh SSW 19.0 mph30.6 kmh 29.69 in1005.4 mb 0.00 in0.0 mm 0.00 in0.0 mm 0.00 in0.0 mm
12:55 PM 67.4°F19.7°C 38.8°F3.8°C 35% 8.0 mph SW12.9 kmh SW 19.0 mph30.6 kmh 29.69 in1005.4 mb 0.00 in0.0 mm 0.00 in0.0 mm 0.00 in0.0 mm
01:00 PM 67.4°F19.7°C 41.6°F5.3°C 39% 6.0 mph SW9.7 kmh SW 18.0 mph29.0 kmh 29.69 in1005.4 mb 0.00 in0.0 mm 0.00 in0.0 mm 0.00 in0.0 mm
01:05 PM 67.5°F19.7°C 38.9°F3.8°C 35% 13.0 mph SW20.9 kmh SW 22.0 mph35.4 kmh 29.69 in1005.4 mb 0.00 in0.0 mm 0.00 in0.0 mm 0.00 in0.0 mm
01:10 PM 67.5°F19.7°C 38.9°F3.8°C 35% 14.0 mph SSW22.5 kmh SSW 22.0 mph35.4 kmh 29.69 in1005.4 mb 0.00 in0.0 mm 0.00 in0.0 mm 0.00 in0.0 mm
01:15 PM 67.7°F19.8°C 38.4°F3.6°C 34% 15.0 mph SSW24.1 kmh SSW 20.0 mph32.2 kmh 29.68 in1005.1 mb 0.00 in0.0 mm 0.00 in0.0 mm 0.00 in0.0 mm
01:20 PM 68.0°F20.0°C 37.9°F3.3°C 33% 12.0 mph SW19.3 kmh SW 24.0 mph38.6 kmh 29.68 in1005.1 mb 0.00 in0.0 mm 0.00 in0.0 mm 0.00 in0.0 mm
01:25 PM 68.4°F20.2°C 39.0°F3.9°C 34% 5.0 mph S8.0 kmh S 24.0 mph38.6 kmh 29.68 in1005.1 mb 0.00 in0.0 mm 0.00 in0.0 mm 0.00 in0.0 mm
01:30 PM 68.3°F20.2°C 37.3°F2.9°C 32% 3.0 mph SW4.8 kmh SW 22.0 mph35.4 kmh 29.68 in1005.1 mb 0.00 in0.0 mm 0.00 in0.0 mm 0.00 in0.0 mm
01:35 PM 68.6°F20.3°C 40.6°F4.8°C 36% 6.0 mph SSW9.7 kmh SSW 22.0 mph35.4 kmh 29.68 in1005.1 mb 0.00 in0.0 mm 0.00 in0.0 mm 0.00 in0.0 mm
01:40 PM 68.6°F20.3°C 39.9°F4.4°C 35% 11.0 mph S17.7 kmh S 22.0 mph35.4 kmh 29.68 in1005.1 mb 0.00 in0.0 mm 0.00 in0.0 mm 0.00 in0.0 mm
01:45 PM 68.6°F20.3°C 38.4°F3.6°C 33% 8.0 mph SW12.9 kmh SW 21.0 mph33.8 kmh 29.68 in1005.1 mb 0.00 in0.0 mm 0.00 in0.0 mm 0.00 in0.0 mm
01:50 PM 68.8°F20.4°C 40.1°F4.5°C 35% 15.0 mph SW24.1 kmh SW 21.0 mph33.8 kmh 29.67 in1004.7 mb 0.00 in0.0 mm 0.00 in0.0 mm 0.00 in0.0 mm
01:55 PM 68.9°F20.5°C 39.4°F4.1°C 34% 11.0 mph SSW17.7 kmh SSW 21.0 mph33.8 kmh 29.67 in1004.7 mb 0.00 in0.0 mm 0.00 in0.0 mm 0.00 in0.0 mm
02:00 PM 69.3°F20.7°C 41.2°F5.1°C 36% 15.0 mph SSE24.1 kmh SSE 17.0 mph27.4 kmh 29.67 in1004.7 mb 0.00 in0.0 mm 0.00 in0.0 mm 0.00 in0.0 mm
02:05 PM 69.1°F20.6°C 39.6°F4.2°C 34% 7.0 mph S11.3 kmh S 17.0 mph27.4 kmh 29.67 in1004.7 mb 0.00 in0.0 mm 0.00 in0.0 mm 0.00 in0.0 mm
02:10 PM 69.5°F20.8°C 39.9°F4.4°C 34% 9.0 mph SSW14.5 kmh SSW 17.0 mph27.4 kmh 29.67 in1004.7 mb 0.00 in0.0 mm 0.00 in0.0 mm 0.00 in0.0 mm
02:15 PM 69.5°F20.8°C 39.2°F4.0°C 33% 11.0 mph S17.7 kmh S 23.0 mph37.0 kmh 29.67 in1004.7 mb 0.00 in0.0 mm 0.00 in0.0 mm 0.00 in0.0 mm
02:20 PM 69.9°F21.1°C 40.3°F4.6°C 34% 5.0 mph SSW8.0 kmh SSW 23.0 mph37.0 kmh 29.67 in1004.7 mb 0.00 in0.0 mm 0.00 in0.0 mm 0.00 in0.0 mm
02:25 PM 69.9°F21.1°C 37.9°F3.3°C 31% 14.0 mph SSW22.5 kmh SSW 23.0 mph37.0 kmh 29.68 in1005.1 mb 0.00 in0.0 mm 0.00 in0.0 mm 0.00 in0.0 mm
02:30 PM 69.7°F20.9°C 38.6°F3.7°C 32% 15.0 mph SSW24.1 kmh SSW 20.0 mph32.2 kmh 29.68 in1005.1 mb 0.00 in0.0 mm 0.00 in0.0 mm 0.00 in0.0 mm
02:35 PM 69.8°F21.0°C 38.6°F3.7°C 32% 13.0 mph SSW20.9 kmh SSW 20.0 mph32.2 kmh 29.67 in1004.7 mb 0.00 in0.0 mm 0.00 in0.0 mm 0.00 in0.0 mm
02:40 PM 70.0°F21.1°C 41.1°F5.1°C 35% 15.0 mph S24.1 kmh S 20.0 mph32.2 kmh 29.67 in1004.7 mb 0.00 in0.0 mm 0.00 in0.0 mm 0.00 in0.0 mm
02:45 PM 70.6°F21.4°C 39.3°F4.1°C 32% 12.0 mph SSW19.3 kmh SSW 15.0 mph24.1 kmh 29.67 in1004.7 mb 0.00 in0.0 mm 0.00 in0.0 mm 0.00 in0.0 mm
02:50 PM 70.6°F21.4°C 40.1°F4.5°C 33% 12.0 mph SW19.3 kmh SW 24.0 mph38.6 kmh 29.67 in1004.7 mb 0.00 in0.0 mm 0.00 in0.0 mm 0.00 in0.0 mm
02:55 PM 70.4°F21.3°C 39.2°F4.0°C 32% 16.0 mph SSW25.7 kmh SSW 24.0 mph38.6 kmh 29.67 in1004.7 mb 0.00 in0.0 mm 0.00 in0.0 mm 0.00 in0.0 mm
03:00 PM 70.4°F21.3°C 40.0°F4.4°C 33% 11.0 mph SSW17.7 kmh SSW 17.0 mph27.4 kmh 29.67 in1004.7 mb 0.00 in0.0 mm 0.00 in0.0 mm 0.00 in0.0 mm
03:05 PM 70.7°F21.5°C 38.6°F3.7°C 31% 5.0 mph SW8.0 kmh SW 17.0 mph27.4 kmh 29.68 in1005.1 mb 0.00 in0.0 mm 0.00 in0.0 mm 0.00 in0.0 mm
03:10 PM 70.9°F21.6°C 38.0°F3.3°C 30% 12.0 mph SSW19.3 kmh SSW 23.0 mph37.0 kmh 29.68 in1005.1 mb 0.00 in0.0 mm 0.00 in0.0 mm 0.00 in0.0 mm
03:15 PM 70.9°F21.6°C 39.6°F4.2°C 32% 10.0 mph SW16.1 kmh SW 17.0 mph27.4 kmh 29.67 in1004.7 mb 0.00 in0.0 mm 0.00 in0.0 mm 0.00 in0.0 mm
03:20 PM 71.0°F21.7°C 38.0°F3.3°C 30% 13.0 mph SSW20.9 kmh SSW 23.0 mph37.0 kmh 29.67 in1004.7 mb 0.00 in0.0 mm 0.00 in0.0 mm 0.00 in0.0 mm
03:25 PM 70.9°F21.6°C 38.8°F3.8°C 31% 11.0 mph SSW17.7 kmh SSW 23.0 mph37.0 kmh 29.67 in1004.7 mb 0.00 in0.0 mm 0.00 in0.0 mm 0.00 in0.0 mm
03:30 PM 71.2°F21.8°C 39.9°F4.4°C 32% 21.0 mph SSW33.8 kmh SSW 21.0 mph33.8 kmh 29.67 in1004.7 mb 0.00 in0.0 mm 0.00 in0.0 mm 0.00 in0.0 mm
03:35 PM 71.1°F21.7°C 38.1°F3.4°C 30% 13.0 mph SW20.9 kmh SW 22.0 mph35.4 kmh 29.67 in1004.7 mb 0.00 in0.0 mm 0.00 in0.0 mm 0.00 in0.0 mm
03:40 PM 71.1°F21.7°C 38.1°F3.4°C 30% 12.0 mph SW19.3 kmh SW 22.0 mph35.4 kmh 29.67 in1004.7 mb 0.00 in0.0 mm 0.00 in0.0 mm 0.00 in0.0 mm
03:45 PM 71.3°F21.8°C 40.0°F4.4°C 32% 11.0 mph SSW17.7 kmh SSW 12.0 mph19.3 kmh 29.67 in1004.7 mb 0.00 in0.0 mm 0.00 in0.0 mm 0.00 in0.0 mm
03:50 PM 71.3°F21.8°C 36.5°F2.5°C 28% 13.0 mph SSW20.9 kmh SSW 20.0 mph32.2 kmh 29.67 in1004.7 mb 0.00 in0.0 mm 0.00 in0.0 mm 0.00 in0.0 mm
03:55 PM 71.2°F21.8°C 39.1°F3.9°C 31% 11.0 mph SSW17.7 kmh SSW 20.0 mph32.2 kmh 29.68 in1005.1 mb 0.00 in0.0 mm 0.00 in0.0 mm 0.00 in0.0 mm
04:00 PM 71.5°F21.9°C 39.3°F4.1°C 31% 8.0 mph SSW12.9 kmh SSW 13.0 mph20.9 kmh 29.68 in1005.1 mb 0.00 in0.0 mm 0.00 in0.0 mm 0.00 in0.0 mm
04:05 PM 71.4°F21.9°C 37.5°F3.1°C 29% 9.0 mph SSW14.5 kmh SSW 15.0 mph24.1 kmh 29.68 in1005.1 mb 0.00 in0.0 mm 0.00 in0.0 mm 0.00 in0.0 mm
04:10 PM 71.6°F22.0°C 39.4°F4.1°C 31% 7.0 mph SW11.3 kmh SW 15.0 mph24.1 kmh 29.68 in1005.1 mb 0.00 in0.0 mm 0.00 in0.0 mm 0.00 in0.0 mm
04:15 PM 71.6°F22.0°C 38.6°F3.7°C 30% 5.0 mph SW8.0 kmh SW 13.0 mph20.9 kmh 29.69 in1005.4 mb 0.00 in0.0 mm 0.00 in0.0 mm 0.00 in0.0 mm
04:20 PM 71.9°F22.2°C 38.0°F3.3°C 29% 6.0 mph S9.7 kmh S 14.0 mph22.5 kmh 29.68 in1005.1 mb 0.00 in0.0 mm 0.00 in0.0 mm 0.00 in0.0 mm
04:25 PM 71.9°F22.2°C 37.1°F2.8°C 28% 17.0 mph S27.4 kmh S 19.0 mph30.6 kmh 29.68 in1005.1 mb 0.00 in0.0 mm 0.00 in0.0 mm 0.00 in0.0 mm
04:30 PM 71.8°F22.1°C 37.0°F2.8°C 28% 11.0 mph SW17.7 kmh SW 17.0 mph27.4 kmh 29.68 in1005.1 mb 0.00 in0.0 mm 0.00 in0.0 mm 0.00 in0.0 mm
04:35 PM 71.7°F22.1°C 36.9°F2.7°C 28% 13.0 mph SSW20.9 kmh SSW 17.0 mph27.4 kmh 29.68 in1005.1 mb 0.00 in0.0 mm 0.00 in0.0 mm 0.00 in0.0 mm
04:40 PM 71.7°F22.1°C 36.9°F2.7°C 28% 10.0 mph SW16.1 kmh SW 17.0 mph27.4 kmh 29.68 in1005.1 mb 0.00 in0.0 mm 0.00 in0.0 mm 0.00 in0.0 mm
04:45 PM 71.7°F22.1°C 40.3°F4.6°C 32% 5.0 mph SSW8.0 kmh SSW 15.0 mph24.1 kmh 29.69 in1005.4 mb 0.00 in0.0 mm 0.00 in0.0 mm 0.00 in0.0 mm
04:50 PM 71.7°F22.1°C 37.8°F3.2°C 29% 9.0 mph SW14.5 kmh SW 21.0 mph33.8 kmh 29.69 in1005.4 mb 0.00 in0.0 mm 0.00 in0.0 mm 0.00 in0.0 mm
04:55 PM 71.8°F22.1°C 37.9°F3.3°C 29% 7.0 mph SW11.3 kmh SW 21.0 mph33.8 kmh 29.69 in1005.4 mb 0.00 in0.0 mm 0.00 in0.0 mm 0.00 in0.0 mm
05:00 PM 71.7°F22.1°C 39.5°F4.2°C 31% 10.0 mph S16.1 kmh S 13.0 mph20.9 kmh 29.69 in1005.4 mb 0.00 in0.0 mm 0.00 in0.0 mm 0.00 in0.0 mm
05:05 PM 71.9°F22.2°C 38.0°F3.3°C 29% 6.0 mph SW9.7 kmh SW 18.0 mph29.0 kmh 29.70 in1005.8 mb 0.00 in0.0 mm 0.00 in0.0 mm 0.00 in0.0 mm
05:10 PM 71.7°F22.1°C 41.1°F5.1°C 33% 6.0 mph SSW9.7 kmh SSW 18.0 mph29.0 kmh 29.70 in1005.8 mb 0.00 in0.0 mm 0.00 in0.0 mm 0.00 in0.0 mm
05:15 PM 71.6°F22.0°C 39.4°F4.1°C 31% 8.0 mph SSW12.9 kmh SSW 12.0 mph19.3 kmh 29.70 in1005.8 mb 0.00 in0.0 mm 0.00 in0.0 mm 0.00 in0.0 mm
05:20 PM 71.6°F22.0°C 39.4°F4.1°C 31% 9.0 mph SSW14.5 kmh SSW 16.0 mph25.7 kmh 29.70 in1005.8 mb 0.00 in0.0 mm 0.00 in0.0 mm 0.00 in0.0 mm
05:25 PM 71.8°F22.1°C 36.1°F2.3°C 27% 10.0 mph SSW16.1 kmh SSW 23.0 mph37.0 kmh 29.70 in1005.8 mb 0.00 in0.0 mm 0.00 in0.0 mm 0.00 in0.0 mm
05:30 PM 71.8°F22.1°C 38.7°F3.7°C 30% 6.0 mph SSW9.7 kmh SSW 18.0 mph29.0 kmh 29.70 in1005.8 mb 0.00 in0.0 mm 0.00 in0.0 mm 0.00 in0.0 mm
05:35 PM 71.6°F22.0°C 38.6°F3.7°C 30% 12.0 mph SW19.3 kmh SW 18.0 mph29.0 kmh 29.70 in1005.8 mb 0.00 in0.0 mm 0.00 in0.0 mm 0.00 in0.0 mm
05:40 PM 71.6°F22.0°C 38.6°F3.7°C 30% 9.0 mph SSW14.5 kmh SSW 18.0 mph29.0 kmh 29.71 in1006.1 mb 0.00 in0.0 mm 0.00 in0.0 mm 0.00 in0.0 mm
05:45 PM 71.6°F22.0°C 36.8°F2.7°C 28% 10.0 mph SW16.1 kmh SW 13.0 mph20.9 kmh 29.71 in1006.1 mb 0.00 in0.0 mm 0.00 in0.0 mm 0.00 in0.0 mm
05:50 PM 71.6°F22.0°C 38.6°F3.7°C 30% 4.0 mph SW6.4 kmh SW 13.0 mph20.9 kmh 29.72 in1006.4 mb 0.00 in0.0 mm 0.00 in0.0 mm 0.00 in0.0 mm
05:55 PM 71.2°F21.8°C 39.9°F4.4°C 32% 10.0 mph SSW16.1 kmh SSW 13.0 mph20.9 kmh 29.71 in1006.1 mb 0.00 in0.0 mm 0.00 in0.0 mm 0.00 in0.0 mm
06:00 PM 71.4°F21.9°C 38.4°F3.6°C 30% 6.0 mph SW9.7 kmh SW 13.0 mph20.9 kmh 29.72 in1006.4 mb 0.00 in0.0 mm 0.00 in0.0 mm 0.00 in0.0 mm
06:05 PM 71.4°F21.9°C 39.2°F4.0°C 31% 8.0 mph SW12.9 kmh SW 13.0 mph20.9 kmh 29.72 in1006.4 mb 0.00 in0.0 mm 0.00 in0.0 mm 0.00 in0.0 mm
06:10 PM 71.1°F21.7°C 38.1°F3.4°C 30% 5.0 mph SW8.0 kmh SW 13.0 mph20.9 kmh 29.72 in1006.4 mb 0.00 in0.0 mm 0.00 in0.0 mm 0.00 in0.0 mm
06:15 PM 71.1°F21.7°C 39.0°F3.9°C 31% 3.0 mph SSW4.8 kmh SSW 8.0 mph12.9 kmh 29.72 in1006.4 mb 0.00 in0.0 mm 0.00 in0.0 mm 0.00 in0.0 mm
06:20 PM 71.0°F21.7°C 40.5°F4.7°C 33% 5.0 mph SSW8.0 kmh SSW 10.0 mph16.1 kmh 29.72 in1006.4 mb 0.00 in0.0 mm 0.00 in0.0 mm 0.00 in0.0 mm
06:25 PM 70.7°F21.5°C 39.4°F4.1°C 32% 8.0 mph SSW12.9 kmh SSW 10.0 mph16.1 kmh 29.73 in1006.8 mb 0.00 in0.0 mm 0.00 in0.0 mm 0.00 in0.0 mm
06:30 PM 70.4°F21.3°C 39.2°F4.0°C 32% 3.0 mph SSW4.8 kmh SSW 9.0 mph14.5 kmh 29.73 in1006.8 mb 0.00 in0.0 mm 0.00 in0.0 mm 0.00 in0.0 mm
06:35 PM 70.2°F21.2°C 42.0°F5.6°C 36% 3.0 mph SSW4.8 kmh SSW 9.0 mph14.5 kmh 29.73 in1006.8 mb 0.00 in0.0 mm 0.00 in0.0 mm 0.00 in0.0 mm
06:40 PM 69.9°F21.1°C 41.0°F5.0°C 35% 2.0 mph SW3.2 kmh SW 9.0 mph14.5 kmh 29.74 in1007.1 mb 0.00 in0.0 mm 0.00 in0.0 mm 0.00 in0.0 mm
06:45 PM 69.6°F20.9°C 42.2°F5.7°C 37% 3.0 mph SW4.8 kmh SW 5.0 mph8.0 kmh 29.74 in1007.1 mb 0.00 in0.0 mm 0.00 in0.0 mm 0.00 in0.0 mm
06:50 PM 69.1°F20.6°C 44.4°F6.9°C 41% 3.0 mph WSW4.8 kmh WSW 8.0 mph12.9 kmh 29.74 in1007.1 mb 0.00 in0.0 mm 0.00 in0.0 mm 0.00 in0.0 mm
06:55 PM 68.8°F20.4°C 47.8°F8.8°C 47% 4.0 mph WSW6.4 kmh WSW 8.0 mph12.9 kmh 29.75 in1007.5 mb 0.00 in0.0 mm 0.00 in0.0 mm 0.00 in0.0 mm
07:00 PM 68.4°F20.2°C 46.3°F7.9°C 45% 1.0 mph WSW1.6 kmh WSW 5.0 mph8.0 kmh 29.74 in1007.1 mb 0.00 in0.0 mm 0.00 in0.0 mm 0.00 in0.0 mm
07:05 PM 68.0°F20.0°C 44.7°F7.1°C 43% 2.0 mph WSW3.2 kmh WSW 5.0 mph8.0 kmh 29.74 in1007.1 mb 0.00 in0.0 mm 0.00 in0.0 mm 0.00 in0.0 mm
07:10 PM 67.8°F19.9°C 49.6°F9.8°C 52% 2.0 mph WSW3.2 kmh WSW 5.0 mph8.0 kmh 29.74 in1007.1 mb 0.00 in0.0 mm 0.00 in0.0 mm 0.00 in0.0 mm
07:15 PM 67.3°F19.6°C 45.3°F7.4°C 45% 2.0 mph WSW3.2 kmh WSW 4.0 mph6.4 kmh 29.75 in1007.5 mb 0.00 in0.0 mm 0.00 in0.0 mm 0.00 in0.0 mm
07:20 PM 66.8°F19.3°C 43.0°F6.1°C 42% 2.0 mph WSW3.2 kmh WSW 4.0 mph6.4 kmh 29.76 in1007.8 mb 0.00 in0.0 mm 0.00 in0.0 mm 0.00 in0.0 mm
07:25 PM 66.6°F19.2°C 42.2°F5.7°C 41% 1.0 mph WSW1.6 kmh WSW 4.0 mph6.4 kmh 29.76 in1007.8 mb 0.00 in0.0 mm 0.00 in0.0 mm 0.00 in0.0 mm
07:30 PM 66.5°F19.2°C 41.5°F5.3°C 40% 1.0 mph WSW1.6 kmh WSW 3.0 mph4.8 kmh 29.76 in1007.8 mb 0.00 in0.0 mm 0.00 in0.0 mm 0.00 in0.0 mm
07:35 PM 66.3°F19.1°C 41.3°F5.2°C 40% 2.0 mph WSW3.2 kmh WSW 3.0 mph4.8 kmh 29.77 in1008.1 mb 0.00 in0.0 mm 0.00 in0.0 mm 0.00 in0.0 mm
07:40 PM 66.2°F19.0°C 44.3°F6.8°C 45% Calm Calm 3.0 mph4.8 kmh 29.76 in1007.8 mb 0.00 in0.0 mm 0.00 in0.0 mm 0.00 in0.0 mm
07:45 PM 66.1°F18.9°C 48.5°F9.2°C 53% Calm Calm -- 29.77 in1008.1 mb 0.00 in0.0 mm 0.00 in0.0 mm 0.00 in0.0 mm
07:50 PM 65.9°F18.8°C 53.4°F11.9°C 64% Calm Calm -- 29.77 in1008.1 mb 0.00 in0.0 mm 0.00 in0.0 mm 0.00 in0.0 mm
07:55 PM 65.4°F18.6°C 53.8°F12.1°C 66% Calm Calm -- 29.77 in1008.1 mb 0.00 in0.0 mm 0.00 in0.0 mm 0.00 in0.0 mm
08:00 PM 64.6°F18.1°C 53.8°F12.1°C 68% 3.0 mph WSW4.8 kmh WSW 3.0 mph4.8 kmh 29.77 in1008.1 mb 0.00 in0.0 mm 0.00 in0.0 mm 0.00 in0.0 mm
08:05 PM 64.1°F17.8°C 54.9°F12.7°C 72% Calm Calm 3.0 mph4.8 kmh 29.77 in1008.1 mb 0.00 in0.0 mm 0.00 in0.0 mm 0.00 in0.0 mm
08:10 PM 64.0°F17.8°C 54.8°F12.7°C 72% Calm Calm 3.0 mph4.8 kmh 29.77 in1008.1 mb 0.00 in0.0 mm 0.00 in0.0 mm 0.00 in0.0 mm
08:15 PM 63.8°F17.7°C 53.8°F12.1°C 70% Calm Calm 1.0 mph1.6 kmh 29.78 in1008.5 mb 0.00 in0.0 mm 0.00 in0.0 mm 0.00 in0.0 mm
08:20 PM 63.8°F17.7°C 54.6°F12.6°C 72% Calm Calm 1.0 mph1.6 kmh 29.78 in1008.5 mb 0.00 in0.0 mm 0.00 in0.0 mm 0.00 in0.0 mm
08:25 PM 63.7°F17.6°C 54.1°F12.3°C 71% 2.0 mph WSW3.2 kmh WSW 3.0 mph4.8 kmh 29.78 in1008.5 mb 0.00 in0.0 mm 0.00 in0.0 mm 0.00 in0.0 mm
08:30 PM 63.4°F17.4°C 51.9°F11.1°C 66% 2.0 mph WSW3.2 kmh WSW 4.0 mph6.4 kmh 29.78 in1008.5 mb 0.00 in0.0 mm 0.00 in0.0 mm 0.00 in0.0 mm
08:35 PM 63.2°F17.3°C 48.2°F9.0°C 58% 3.0 mph WSW4.8 kmh WSW 5.0 mph8.0 kmh 29.79 in1008.8 mb 0.00 in0.0 mm 0.00 in0.0 mm 0.00 in0.0 mm
08:40 PM 63.1°F17.3°C 46.2°F7.9°C 54% 4.0 mph WSW6.4 kmh WSW 5.0 mph8.0 kmh 29.79 in1008.8 mb 0.00 in0.0 mm 0.00 in0.0 mm 0.00 in0.0 mm
08:45 PM 63.1°F17.3°C 45.2°F7.3°C 52% Calm Calm 3.0 mph4.8 kmh 29.78 in1008.5 mb 0.00 in0.0 mm 0.00 in0.0 mm 0.00 in0.0 mm
08:50 PM 63.1°F17.3°C 44.2°F6.8°C 50% Calm Calm 3.0 mph4.8 kmh 29.79 in1008.8 mb 0.00 in0.0 mm 0.00 in0.0 mm 0.00 in0.0 mm
08:55 PM 63.1°F17.3°C 43.7°F6.5°C 49% Calm Calm 3.0 mph4.8 kmh 29.80 in1009.1 mb 0.00 in0.0 mm 0.00 in0.0 mm 0.00 in0.0 mm
09:00 PM 63.0°F17.2°C 41.4°F5.2°C 45% Calm Calm -- 29.79 in1008.8 mb 0.00 in0.0 mm 0.00 in0.0 mm 0.00 in0.0 mm
09:05 PM 63.1°F17.3°C 43.1°F6.2°C 48% 2.0 mph WSW3.2 kmh WSW 2.0 mph3.2 kmh 29.79 in1008.8 mb 0.00 in0.0 mm 0.00 in0.0 mm 0.00 in0.0 mm
09:10 PM 63.4°F17.4°C 51.4°F10.8°C 65% 5.0 mph WSW8.0 kmh WSW 5.0 mph8.0 kmh 29.79 in1008.8 mb 0.00 in0.0 mm 0.00 in0.0 mm 0.00 in0.0 mm
09:15 PM 63.4°F17.4°C 51.4°F10.8°C 65% 7.0 mph WSW11.3 kmh WSW 8.0 mph12.9 kmh 29.79 in1008.8 mb 0.00 in0.0 mm 0.00 in0.0 mm 0.00 in0.0 mm
09:20 PM 63.5°F17.5°C 52.4°F11.3°C 67% 2.0 mph WSW3.2 kmh WSW 8.0 mph12.9 kmh 29.80 in1009.1 mb 0.00 in0.0 mm 0.00 in0.0 mm 0.00 in0.0 mm
09:25 PM 63.4°F17.4°C 49.7°F9.8°C 61% 2.0 mph WSW3.2 kmh WSW 8.0 mph12.9 kmh 29.80 in1009.1 mb 0.00 in0.0 mm 0.00 in0.0 mm 0.00 in0.0 mm
09:30 PM 63.4°F17.4°C 46.0°F7.8°C 53% Calm Calm 2.0 mph3.2 kmh 29.80 in1009.1 mb 0.00 in0.0 mm 0.00 in0.0 mm 0.00 in0.0 mm
09:35 PM 63.5°F17.5°C 48.9°F9.4°C 59% Calm Calm 2.0 mph3.2 kmh 29.80 in1009.1 mb 0.00 in0.0 mm 0.00 in0.0 mm 0.00 in0.0 mm
09:40 PM 63.5°F17.5°C 48.9°F9.4°C 59% Calm Calm 2.0 mph3.2 kmh 29.81 in1009.5 mb 0.00 in0.0 mm 0.00 in0.0 mm 0.00 in0.0 mm
09:45 PM 63.6°F17.6°C 49.5°F9.7°C 60% 2.0 mph WSW3.2 kmh WSW 2.0 mph3.2 kmh 29.81 in1009.5 mb 0.00 in0.0 mm 0.00 in0.0 mm 0.00 in0.0 mm
09:50 PM 63.5°F17.5°C 49.4°F9.7°C 60% Calm Calm 3.0 mph4.8 kmh 29.81 in1009.5 mb 0.00 in0.0 mm 0.00 in0.0 mm 0.00 in0.0 mm
09:55 PM 63.5°F17.5°C 49.8°F9.9°C 61% Calm Calm 3.0 mph4.8 kmh 29.81 in1009.5 mb 0.00 in0.0 mm 0.00 in0.0 mm 0.00 in0.0 mm
10:00 PM 63.4°F17.4°C 49.7°F9.8°C 61% Calm Calm -- 29.81 in1009.5 mb 0.00 in0.0 mm 0.00 in0.0 mm 0.00 in0.0 mm
10:05 PM 63.4°F17.4°C 51.0°F10.6°C 64% Calm Calm -- 29.81 in1009.5 mb 0.00 in0.0 mm 0.00 in0.0 mm 0.00 in0.0 mm
10:10 PM 63.3°F17.4°C 51.8°F11.0°C 66% Calm Calm -- 29.81 in1009.5 mb 0.00 in0.0 mm 0.00 in0.0 mm 0.00 in0.0 mm
10:15 PM 63.2°F17.3°C 50.8°F10.4°C 64% Calm Calm -- 29.81 in1009.5 mb 0.00 in0.0 mm 0.00 in0.0 mm 0.00 in0.0 mm
10:20 PM 63.0°F17.2°C 51.9°F11.1°C 67% Calm Calm -- 29.81 in1009.5 mb 0.00 in0.0 mm 0.00 in0.0 mm 0.00 in0.0 mm
10:25 PM 62.8°F17.1°C 52.9°F11.6°C 70% Calm Calm -- 29.82 in1009.8 mb 0.00 in0.0 mm 0.00 in0.0 mm 0.00 in0.0 mm
10:30 PM 62.6°F17.0°C 53.8°F12.1°C 73% Calm Calm -- 29.82 in1009.8 mb 0.00 in0.0 mm 0.00 in0.0 mm 0.00 in0.0 mm
10:35 PM 62.5°F16.9°C 53.4°F11.9°C 72% Calm Calm -- 29.83 in1010.2 mb 0.00 in0.0 mm 0.00 in0.0 mm 0.00 in0.0 mm
10:40 PM 62.3°F16.8°C 52.4°F11.3°C 70% Calm Calm -- 29.83 in1010.2 mb 0.00 in0.0 mm 0.00 in0.0 mm 0.00 in0.0 mm
10:45 PM 62.2°F16.8°C 52.7°F11.5°C 71% Calm Calm -- 29.84 in1010.5 mb 0.00 in0.0 mm 0.00 in0.0 mm 0.00 in0.0 mm
10:50 PM 61.9°F16.6°C 52.0°F11.1°C 70% Calm Calm -- 29.85 in1010.8 mb 0.00 in0.0 mm 0.00 in0.0 mm 0.00 in0.0 mm
10:55 PM 61.8°F16.6°C 52.7°F11.5°C 72% Calm Calm -- 29.85 in1010.8 mb 0.00 in0.0 mm 0.00 in0.0 mm 0.00 in0.0 mm
11:00 PM 61.7°F16.5°C 53.0°F11.7°C 73% Calm Calm -- 29.85 in1010.8 mb 0.00 in0.0 mm 0.00 in0.0 mm 0.00 in0.0 mm
11:05 PM 61.6°F16.4°C 53.6°F12.0°C 75% 3.0 mph WSW4.8 kmh WSW 5.0 mph8.0 kmh 29.84 in1010.5 mb 0.00 in0.0 mm 0.00 in0.0 mm 0.00 in0.0 mm
11:10 PM 61.4°F16.3°C 53.1°F11.7°C 74% 3.0 mph WSW4.8 kmh WSW 7.0 mph11.3 kmh 29.85 in1010.8 mb 0.00 in0.0 mm 0.00 in0.0 mm 0.00 in0.0 mm
11:15 PM 61.3°F16.3°C 51.8°F11.0°C 71% 2.0 mph WSW3.2 kmh WSW 5.0 mph8.0 kmh 29.85 in1010.8 mb 0.00 in0.0 mm 0.00 in0.0 mm 0.00 in0.0 mm
11:20 PM 61.1°F16.2°C 46.2°F7.9°C 58% 4.0 mph WSW6.4 kmh WSW 5.0 mph8.0 kmh 29.86 in1011.2 mb 0.00 in0.0 mm 0.00 in0.0 mm 0.00 in0.0 mm
11:25 PM 61.4°F16.3°C 47.4°F8.6°C 60% 1.0 mph WSW1.6 kmh WSW 5.0 mph8.0 kmh 29.87 in1011.5 mb 0.00 in0.0 mm 0.00 in0.0 mm 0.00 in0.0 mm
11:30 PM 61.6°F16.4°C 44.8°F7.1°C 54% 4.0 mph WSW6.4 kmh WSW 7.0 mph11.3 kmh 29.87 in1011.5 mb 0.00 in0.0 mm 0.00 in0.0 mm 0.00 in0.0 mm
11:35 PM 62.0°F16.7°C 45.2°F7.3°C 54% 2.0 mph WSW3.2 kmh WSW 8.0 mph12.9 kmh 29.86 in1011.2 mb 0.00 in0.0 mm 0.00 in0.0 mm 0.00 in0.0 mm
11:40 PM 62.3°F16.8°C 44.5°F6.9°C 52% 4.0 mph WSW6.4 kmh WSW 10.0 mph16.1 kmh 29.86 in1011.2 mb 0.00 in0.0 mm 0.00 in0.0 mm 0.00 in0.0 mm
11:45 PM 62.5°F16.9°C 42.6°F5.9°C 48% 7.0 mph W11.3 kmh W 11.0 mph17.7 kmh 29.86 in1011.2 mb 0.00 in0.0 mm 0.00 in0.0 mm 0.00 in0.0 mm
11:50 PM 62.6°F17.0°C 42.1°F5.6°C 47% 7.0 mph W11.3 kmh W 11.0 mph17.7 kmh 29.86 in1011.2 mb 0.00 in0.0 mm 0.00 in0.0 mm 0.00 in0.0 mm
11:55 PM 62.6°F17.0°C 40.4°F4.7°C 44% 9.0 mph WSW14.5 kmh WSW 14.0 mph22.5 kmh 29.86 in1011.2 mb 0.00 in0.0 mm 0.00 in0.0 mm 0.00 in0.0 mm